createdAt,value
2022-12-05T00:01:37.641Z,180.80
2022-12-05T00:04:08.584Z,197.17
2022-12-05T00:06:38.192Z,173.50
2022-12-05T00:09:07.707Z,179.07
2022-12-05T00:11:37.702Z,181.10
2022-12-05T00:14:06.489Z,167.67
2022-12-05T00:16:35.864Z,170.77
2022-12-05T00:19:05.033Z,179.53
2022-12-05T00:21:34.579Z,164.37
2022-12-05T00:24:03.997Z,174.60
2022-12-05T00:26:32.229Z,169.17
2022-12-05T00:29:00.068Z,171.97
2022-12-05T00:31:28.420Z,162.17
2022-12-05T00:33:56.426Z,162.67
2022-12-05T00:36:27.204Z,174.07
2022-12-05T00:38:55.670Z,161.80
2022-12-05T00:41:25.344Z,166.20
2022-12-05T00:43:53.744Z,166.43
2022-12-05T00:46:23.366Z,151.17
2022-12-05T00:48:52.638Z,161.00
2022-12-05T00:51:28.732Z,165.80
2022-12-05T00:54:02.509Z,145.90
2022-12-05T00:56:32.507Z,145.83
2022-12-05T00:59:01.543Z,146.47
2022-12-05T01:01:35.326Z,147.17
2022-12-05T01:04:06.082Z,144.33
2022-12-05T01:06:33.780Z,131.23
2022-12-05T01:09:04.174Z,147.50
2022-12-05T01:11:35.055Z,130.47
2022-12-05T01:14:12.020Z,130.83
2022-12-05T01:16:41.668Z,132.77
2022-12-05T01:19:14.099Z,124.07
2022-12-05T01:21:42.168Z,141.30
2022-12-05T01:24:11.429Z,132.03
2022-12-05T01:26:40.512Z,129.50
2022-12-05T01:29:08.019Z,133.17
2022-12-05T01:31:37.477Z,126.83
2022-12-05T01:34:07.019Z,116.67
2022-12-05T01:36:34.682Z,119.13
2022-12-05T01:39:02.502Z,112.73
2022-12-05T01:41:32.922Z,116.50
2022-12-05T01:44:05.260Z,109.93
2022-12-05T01:46:44.426Z,116.67
2022-12-05T01:49:20.266Z,116.53
2022-12-05T01:51:50.476Z,111.43
2022-12-05T01:54:20.001Z,105.17
2022-12-05T01:56:56.349Z,100.63
2022-12-05T01:59:26.120Z,96.00
2022-12-05T02:01:54.448Z,114.17
2022-12-05T02:04:22.022Z,104.67
2022-12-05T02:06:49.562Z,102.27
2022-12-05T02:09:16.859Z,105.33
2022-12-05T02:11:54.662Z,98.10
2022-12-05T02:14:34.242Z,100.40
2022-12-05T02:17:31.022Z,100.53
2022-12-05T02:20:16.748Z,100.13
2022-12-05T02:22:59.446Z,95.17
2022-12-05T02:25:52.882Z,96.13
2022-12-05T02:28:28.746Z,110.50
2022-12-05T02:31:08.833Z,95.03
2022-12-05T02:33:45.315Z,101.47
2022-12-05T02:36:24.542Z,102.90
2022-12-05T02:38:59.780Z,97.77
2022-12-05T02:41:43.555Z,104.23
2022-12-05T02:44:23.115Z,102.93
2022-12-05T02:46:52.735Z,99.73
2022-12-05T02:49:25.631Z,99.70
2022-12-05T02:52:02.395Z,99.87
2022-12-05T02:54:35.690Z,98.30
2022-12-05T02:57:05.200Z,106.20
2022-12-05T02:59:32.533Z,111.33
2022-12-05T03:01:59.994Z,105.70
2022-12-05T03:04:30.918Z,97.23
2022-12-05T03:07:00.764Z,98.67
2022-12-05T03:09:35.852Z,104.33
2022-12-05T03:12:14.889Z,102.07
2022-12-05T03:14:51.721Z,106.20
2022-12-05T03:17:27.074Z,97.57
2022-12-05T03:20:06.437Z,95.83
2022-12-05T03:22:41.960Z,93.03
2022-12-05T03:25:13.405Z,87.93
2022-12-05T03:27:41.178Z,91.63
2022-12-05T03:30:12.882Z,95.00
2022-12-05T03:32:49.312Z,88.73
2022-12-05T03:35:37.810Z,95.00
2022-12-05T03:38:35.441Z,89.93
2022-12-05T03:41:10.052Z,92.57
2022-12-05T03:43:55.641Z,87.37
2022-12-05T03:46:32.103Z,89.67
2022-12-05T03:49:16.258Z,90.40
2022-12-05T03:52:06.867Z,86.30
2022-12-05T03:54:44.249Z,92.43
2022-12-05T03:57:44.373Z,89.90
2022-12-05T04:00:16.167Z,92.33
2022-12-05T04:02:48.212Z,86.17
2022-12-05T04:05:19.101Z,90.30
2022-12-05T04:07:50.226Z,88.77
2022-12-05T04:10:24.324Z,84.50
2022-12-05T04:12:55.390Z,83.57
2022-12-05T04:15:52.412Z,84.17
2022-12-05T04:18:23.330Z,82.67
2022-12-05T04:21:11.364Z,87.10
2022-12-05T04:23:41.398Z,81.90
2022-12-05T04:26:27.297Z,85.80
2022-12-05T04:29:26.219Z,84.37
2022-12-05T04:31:58.849Z,86.63
2022-12-05T04:34:29.664Z,82.60
2022-12-05T04:37:03.074Z,83.83
2022-12-05T04:39:46.063Z,82.50
2022-12-05T04:42:23.126Z,91.10
2022-12-05T04:45:08.695Z,80.87
2022-12-05T04:47:43.564Z,88.70
2022-12-05T04:50:12.779Z,93.47
2022-12-05T04:52:41.304Z,89.53
2022-12-05T04:55:12.642Z,82.17
2022-12-05T04:57:57.817Z,98.07
2022-12-05T05:00:26.108Z,90.27
2022-12-05T05:03:00.859Z,91.37
2022-12-05T05:05:29.407Z,88.20
2022-12-05T05:07:57.767Z,88.60
2022-12-05T05:10:40.108Z,89.77
2022-12-05T05:13:07.970Z,87.10
2022-12-05T05:15:35.300Z,92.43
2022-12-05T05:18:02.707Z,89.83
2022-12-05T05:20:32.078Z,90.53
2022-12-05T05:22:59.437Z,117.07
2022-12-05T05:25:26.983Z,131.40
2022-12-05T05:27:56.323Z,91.37
2022-12-05T05:30:25.198Z,98.53
2022-12-05T05:32:52.864Z,85.97
2022-12-05T05:35:22.061Z,86.37
2022-12-05T05:37:49.421Z,90.47
2022-12-05T05:40:17.000Z,79.97
2022-12-05T05:42:49.169Z,85.27
2022-12-05T05:45:17.311Z,82.73
2022-12-05T05:47:45.044Z,77.93
2022-12-05T05:50:19.529Z,88.43
2022-12-05T05:52:48.689Z,87.77
2022-12-05T05:55:15.967Z,87.87
2022-12-05T05:57:43.535Z,85.60
2022-12-05T06:00:12.050Z,82.00
2022-12-05T06:02:39.496Z,98.73
2022-12-05T06:05:07.348Z,93.00
2022-12-05T06:07:35.072Z,88.27
2022-12-05T06:10:02.605Z,103.43
2022-12-05T06:12:30.110Z,102.30
2022-12-05T06:14:57.879Z,89.63
2022-12-05T06:17:25.245Z,75.70
2022-12-05T06:19:52.833Z,77.23
2022-12-05T06:22:20.414Z,77.37
2022-12-05T06:24:48.963Z,77.70
2022-12-05T06:27:16.645Z,90.33
2022-12-05T06:29:44.107Z,85.57
2022-12-05T06:32:11.456Z,82.70
2022-12-05T06:34:39.065Z,84.77
2022-12-05T06:37:07.382Z,100.50
2022-12-05T06:39:34.976Z,95.03
2022-12-05T06:42:02.922Z,88.27
2022-12-05T06:44:30.575Z,114.03
2022-12-05T06:46:58.218Z,123.30
2022-12-05T06:49:31.702Z,100.97
2022-12-05T06:52:01.152Z,87.23
2022-12-05T06:54:28.603Z,91.00
2022-12-05T06:56:55.994Z,94.87
2022-12-05T06:59:23.415Z,103.17
2022-12-05T07:01:50.923Z,105.43
2022-12-05T07:04:24.469Z,115.70
2022-12-05T07:06:53.192Z,116.57
2022-12-05T07:09:46.207Z,140.03
2022-12-05T07:12:16.729Z,123.43
2022-12-05T07:14:49.103Z,121.33
2022-12-05T07:17:18.938Z,138.43
2022-12-05T07:19:51.848Z,138.57
2022-12-05T07:22:21.542Z,123.40
2022-12-05T07:24:51.423Z,128.80
2022-12-05T07:27:25.124Z,108.10
2022-12-05T07:29:57.237Z,141.67
2022-12-05T07:32:25.089Z,137.47
2022-12-05T07:34:55.534Z,140.83
2022-12-05T07:37:24.346Z,137.60
2022-12-05T07:39:53.456Z,122.60
2022-12-05T07:42:21.105Z,125.10
2022-12-05T07:44:49.124Z,121.57
2022-12-05T07:47:16.710Z,115.40
2022-12-05T07:49:43.991Z,112.30
2022-12-05T07:52:11.491Z,113.00
2022-12-05T07:54:39.055Z,114.33
2022-12-05T07:57:06.630Z,126.83
2022-12-05T07:59:34.043Z,101.47
2022-12-05T08:02:01.378Z,102.17
2022-12-05T08:04:28.741Z,103.73
2022-12-05T08:06:56.096Z,125.00
2022-12-05T08:09:23.556Z,132.10
2022-12-05T08:11:52.836Z,125.40
2022-12-05T08:14:20.497Z,106.47
2022-12-05T08:16:47.975Z,131.23
2022-12-05T08:19:17.301Z,121.30
2022-12-05T08:21:44.962Z,103.37
2022-12-05T08:24:12.719Z,112.63
2022-12-05T08:26:42.634Z,104.47
2022-12-05T08:29:13.346Z,100.13
2022-12-05T08:31:44.620Z,102.07
2022-12-05T08:34:13.387Z,102.17
2022-12-05T08:36:41.774Z,116.47
2022-12-05T08:39:14.560Z,107.37
2022-12-05T08:41:42.702Z,97.37
2022-12-05T08:44:16.542Z,91.73
2022-12-05T08:46:45.691Z,90.83
2022-12-05T08:49:13.823Z,98.93
2022-12-05T08:51:42.781Z,88.63
2022-12-05T08:54:10.881Z,86.70
2022-12-05T08:56:38.940Z,85.70
2022-12-05T08:59:06.901Z,93.50
2022-12-05T09:01:37.323Z,96.80
2022-12-05T09:04:06.007Z,105.27
2022-12-05T09:06:34.825Z,96.40
2022-12-05T09:09:06.037Z,78.90
2022-12-05T09:11:37.221Z,90.43
2022-12-05T09:14:05.711Z,90.90
2022-12-05T09:16:38.396Z,92.53
2022-12-05T09:19:15.362Z,85.63
2022-12-05T09:21:43.613Z,83.10
2022-12-05T09:24:12.886Z,73.17
2022-12-05T09:26:41.062Z,85.27
2022-12-05T09:29:15.752Z,76.90
2022-12-05T09:31:44.809Z,83.20
2022-12-05T09:34:14.465Z,70.20
2022-12-05T09:36:41.951Z,81.30
2022-12-05T09:39:10.512Z,87.20
2022-12-05T09:42:25.947Z,71.53
2022-12-05T09:45:18.258Z,105.27
2022-12-05T09:48:14.781Z,99.83
2022-12-05T09:51:01.812Z,112.53
2022-12-05T09:53:39.141Z,88.00
2022-12-05T09:56:15.980Z,81.77
2022-12-05T09:58:49.263Z,68.27
2022-12-05T10:01:44.488Z,65.80
2022-12-05T10:04:45.292Z,66.23
2022-12-05T10:07:25.062Z,65.70
2022-12-05T10:10:49.030Z,68.93
2022-12-05T10:13:59.190Z,72.33
2022-12-05T10:16:35.353Z,60.93
2022-12-05T10:19:14.897Z,66.70
2022-12-05T10:22:01.309Z,77.03
2022-12-05T10:24:41.348Z,76.60
2022-12-05T10:27:13.415Z,77.87
2022-12-05T10:30:00.447Z,76.20
2022-12-05T10:32:41.540Z,79.37
2022-12-05T10:35:35.497Z,69.43
2022-12-05T10:38:31.753Z,65.73
2022-12-05T10:41:04.939Z,64.47
2022-12-05T10:43:34.192Z,65.77
2022-12-05T10:46:03.000Z,61.13
2022-12-05T10:48:32.100Z,70.63
2022-12-05T10:51:00.958Z,88.03
2022-12-05T10:53:40.094Z,70.87
2022-12-05T10:56:41.704Z,73.37
2022-12-05T10:59:16.729Z,66.10
2022-12-05T11:01:58.675Z,72.40
2022-12-05T11:04:43.890Z,75.83
2022-12-05T11:07:30.470Z,61.97
2022-12-05T11:10:02.597Z,56.30
2022-12-05T11:12:39.824Z,58.90
2022-12-05T11:15:28.365Z,57.77
2022-12-05T11:17:58.001Z,79.73
2022-12-05T11:20:25.456Z,72.27
2022-12-05T11:22:57.240Z,67.50
2022-12-05T11:25:29.150Z,75.03
2022-12-05T11:28:01.190Z,67.87
2022-12-05T11:30:30.096Z,66.97
2022-12-05T11:33:17.520Z,66.97
2022-12-05T11:35:47.271Z,69.10
2022-12-05T11:38:17.566Z,67.73
2022-12-05T11:41:14.570Z,71.90
2022-12-05T11:43:53.844Z,70.00
2022-12-05T11:46:29.973Z,66.03
2022-12-05T11:49:38.685Z,62.10
2022-12-05T11:52:24.720Z,62.53
2022-12-05T11:55:05.320Z,49.33
2022-12-05T11:57:52.710Z,59.33
2022-12-05T12:00:27.949Z,52.40
2022-12-05T12:03:17.206Z,55.33
2022-12-05T12:05:51.159Z,54.07
2022-12-05T12:08:26.575Z,56.00
2022-12-05T12:11:11.519Z,52.67
2022-12-05T12:14:03.417Z,53.97
2022-12-05T12:17:02.755Z,48.50
2022-12-05T12:20:03.555Z,53.93
2022-12-05T12:22:46.852Z,52.00
2022-12-05T12:25:43.210Z,53.23
2022-12-05T12:28:22.216Z,49.93
2022-12-05T12:31:09.000Z,49.67
2022-12-05T12:33:59.418Z,52.17
2022-12-05T12:36:30.918Z,51.40
2022-12-05T12:39:10.414Z,48.03
2022-12-05T12:42:13.210Z,46.17
2022-12-05T12:45:17.514Z,62.00
2022-12-05T12:48:18.779Z,59.97
2022-12-05T12:50:55.151Z,69.23
2022-12-05T12:53:28.967Z,59.97
2022-12-05T12:55:56.605Z,53.20
2022-12-05T12:58:56.121Z,56.00
2022-12-05T13:01:29.667Z,58.63
2022-12-05T13:04:07.553Z,56.33
2022-12-05T13:06:47.098Z,52.57
2022-12-05T13:09:32.310Z,70.27
2022-12-05T13:12:06.857Z,59.53
2022-12-05T13:14:36.919Z,58.50
2022-12-05T13:17:07.236Z,60.13
2022-12-05T13:19:49.442Z,62.07
2022-12-05T13:22:19.790Z,58.50
2022-12-05T13:24:47.632Z,60.20
2022-12-05T13:27:21.441Z,60.60
2022-12-05T13:29:57.277Z,56.03
2022-12-05T13:32:32.231Z,55.60
2022-12-05T13:35:08.448Z,56.60
2022-12-05T13:37:55.320Z,60.80
2022-12-05T13:40:47.507Z,60.37
2022-12-05T13:43:24.128Z,58.07
2022-12-05T13:46:23.078Z,55.20
2022-12-05T13:49:05.111Z,60.00
2022-12-05T13:51:37.414Z,65.03
2022-12-05T13:54:17.177Z,56.97
2022-12-05T13:57:02.207Z,62.17
2022-12-05T14:00:01.071Z,63.97
2022-12-05T14:02:43.896Z,65.57
2022-12-05T14:05:21.963Z,65.00
2022-12-05T14:08:01.061Z,66.40
2022-12-05T14:10:29.590Z,61.77
2022-12-05T14:13:01.527Z,67.20
2022-12-05T14:15:43.850Z,73.93
2022-12-05T14:18:35.674Z,62.60
2022-12-05T14:21:11.839Z,63.70
2022-12-05T14:23:59.744Z,67.83
2022-12-05T14:26:56.029Z,66.10
2022-12-05T14:29:26.322Z,66.53
2022-12-05T14:32:23.547Z,71.73
2022-12-05T14:35:20.036Z,68.63
2022-12-05T14:37:56.305Z,66.80
2022-12-05T14:40:38.683Z,71.67
2022-12-05T14:43:34.705Z,68.30
2022-12-05T14:46:03.709Z,179.20
2022-12-05T14:48:35.167Z,107.77
2022-12-05T14:51:05.160Z,94.47
2022-12-05T14:53:51.163Z,104.90
2022-12-05T14:56:20.759Z,84.27
2022-12-05T14:58:52.577Z,71.03
2022-12-05T15:01:22.586Z,72.83
2022-12-05T15:04:14.969Z,74.40
2022-12-05T15:06:54.127Z,75.57
2022-12-05T15:09:45.649Z,76.07
2022-12-05T15:12:20.802Z,72.63
2022-12-05T15:14:54.477Z,82.70
2022-12-05T15:17:27.870Z,72.10
2022-12-05T15:20:06.091Z,70.43
2022-12-05T15:22:37.951Z,75.10
2022-12-05T15:25:26.111Z,75.30
2022-12-05T15:28:06.314Z,82.63
2022-12-05T15:30:38.418Z,80.00
2022-12-05T15:33:10.938Z,74.70
2022-12-05T15:35:38.817Z,73.23
2022-12-05T15:38:29.850Z,75.93
2022-12-05T15:40:57.145Z,77.23
2022-12-05T15:43:28.990Z,74.17
2022-12-05T15:46:14.907Z,76.17
2022-12-05T15:48:42.512Z,80.90
2022-12-05T15:51:09.807Z,77.67
2022-12-05T15:53:52.001Z,88.10
2022-12-05T15:56:31.024Z,82.40
2022-12-05T15:59:19.814Z,86.17
2022-12-05T16:01:52.445Z,86.73
2022-12-05T16:04:31.106Z,85.93
2022-12-05T16:07:00.818Z,81.77
2022-12-05T16:09:32.326Z,77.80
2022-12-05T16:12:05.960Z,79.93
2022-12-05T16:15:00.262Z,85.20
2022-12-05T16:17:31.424Z,87.80
2022-12-05T16:20:17.340Z,82.17
2022-12-05T16:22:57.289Z,79.73
2022-12-05T16:25:30.797Z,76.07
2022-12-05T16:28:08.604Z,76.40
2022-12-05T16:30:37.639Z,129.47
2022-12-05T16:33:16.480Z,213.30
2022-12-05T16:35:46.338Z,188.17
2022-12-05T16:38:30.198Z,202.10
2022-12-05T16:41:03.333Z,176.87
2022-12-05T16:43:33.619Z,188.87
2022-12-05T16:46:15.901Z,200.90
2022-12-05T16:49:07.777Z,250.57
2022-12-05T16:51:42.537Z,222.50
2022-12-05T16:54:09.913Z,322.93
2022-12-05T16:56:38.084Z,375.70
2022-12-05T16:59:07.298Z,305.53
2022-12-05T17:01:39.214Z,264.07
2022-12-05T17:04:11.254Z,265.10
2022-12-05T17:06:39.988Z,249.47
2022-12-05T17:09:07.502Z,230.77
2022-12-05T17:11:37.333Z,204.27
2022-12-05T17:14:07.775Z,181.20
2022-12-05T17:16:35.197Z,179.10
2022-12-05T17:19:02.791Z,170.90
2022-12-05T17:21:33.219Z,167.13
2022-12-05T17:24:01.159Z,138.10
2022-12-05T17:26:28.572Z,140.57
2022-12-05T17:28:57.076Z,140.83
2022-12-05T17:31:26.202Z,141.27
2022-12-05T17:33:54.665Z,142.43
2022-12-05T17:36:22.044Z,131.87
2022-12-05T17:38:50.104Z,131.87
2022-12-05T17:41:23.884Z,122.77
2022-12-05T17:43:52.043Z,123.80
2022-12-05T17:46:22.421Z,130.53
2022-12-05T17:48:51.378Z,121.77
2022-12-05T17:51:20.163Z,121.77
2022-12-05T17:53:48.043Z,125.40
2022-12-05T17:56:15.908Z,129.87
2022-12-05T17:58:43.230Z,115.10
2022-12-05T18:01:16.001Z,114.83
2022-12-05T18:03:43.652Z,107.13
2022-12-05T18:06:11.363Z,90.33
2022-12-05T18:08:44.256Z,82.73
2022-12-05T18:11:15.769Z,93.57
2022-12-05T18:13:43.033Z,149.33
2022-12-05T18:16:10.729Z,124.30
2022-12-05T18:18:38.716Z,126.20
2022-12-05T18:21:12.252Z,123.03
2022-12-05T18:23:40.840Z,121.23
2022-12-05T18:26:10.384Z,104.30
2022-12-05T18:28:39.486Z,110.47
2022-12-05T18:31:09.333Z,125.03
2022-12-05T18:33:37.118Z,105.60
2022-12-05T18:36:09.842Z,98.43
2022-12-05T18:38:38.107Z,103.73
2022-12-05T18:41:07.204Z,98.07
2022-12-05T18:43:35.238Z,98.70
2022-12-05T18:46:06.531Z,95.77
2022-12-05T18:48:41.602Z,92.80
2022-12-05T18:51:13.086Z,95.37
2022-12-05T18:53:41.396Z,95.00
2022-12-05T18:56:27.455Z,88.00
2022-12-05T18:58:59.834Z,117.27
2022-12-05T19:01:28.824Z,103.27
2022-12-05T19:04:01.585Z,117.80
2022-12-05T19:06:32.272Z,283.17
2022-12-05T19:09:03.251Z,230.03
2022-12-05T19:11:30.594Z,183.07
2022-12-05T19:13:59.788Z,173.97
2022-12-05T19:16:29.078Z,166.17
2022-12-05T19:19:01.876Z,155.03
2022-12-05T19:21:33.008Z,194.97
2022-12-05T19:24:02.306Z,166.73
2022-12-05T19:26:29.800Z,171.20
2022-12-05T19:28:57.626Z,145.70
2022-12-05T19:31:26.755Z,121.20
2022-12-05T19:34:01.108Z,124.83
2022-12-05T19:36:32.353Z,158.70
2022-12-05T19:39:00.281Z,241.37
2022-12-05T19:41:31.004Z,182.37
2022-12-05T19:44:02.217Z,170.97
2022-12-05T19:46:31.138Z,126.73
2022-12-05T19:49:03.661Z,143.27
2022-12-05T19:51:33.059Z,81.50
2022-12-05T19:54:02.739Z,74.13
2022-12-05T19:56:31.671Z,69.97
2022-12-05T19:59:00.452Z,74.27
2022-12-05T20:01:33.635Z,75.97
2022-12-05T20:04:10.453Z,69.73
2022-12-05T20:06:41.651Z,66.03
2022-12-05T20:09:10.527Z,68.53
2022-12-05T20:11:43.807Z,78.47
2022-12-05T20:14:13.880Z,77.23
2022-12-05T20:16:42.312Z,148.17
2022-12-05T20:19:10.056Z,111.43
2022-12-05T20:21:40.407Z,97.17
2022-12-05T20:24:08.449Z,97.57
2022-12-05T20:26:42.162Z,89.90
2022-12-05T20:29:09.887Z,93.97
2022-12-05T20:31:42.381Z,155.00
2022-12-05T20:34:14.474Z,141.10
2022-12-05T20:36:42.716Z,147.97
2022-12-05T20:39:17.554Z,163.60
2022-12-05T20:41:45.414Z,202.77
2022-12-05T20:44:15.191Z,219.67
2022-12-05T20:46:42.599Z,261.50
2022-12-05T20:49:11.672Z,203.77
2022-12-05T20:51:42.007Z,182.47
2022-12-05T20:54:09.459Z,171.60
2022-12-05T20:56:36.914Z,190.43
2022-12-05T20:59:07.579Z,176.87
2022-12-05T21:01:36.934Z,181.57
2022-12-05T21:04:06.972Z,178.27
2022-12-05T21:06:37.434Z,172.10
2022-12-05T21:09:07.184Z,157.93
2022-12-05T21:11:34.659Z,165.47
2022-12-05T21:14:05.302Z,177.20
2022-12-05T21:16:32.691Z,165.43
2022-12-05T21:19:00.842Z,134.63
2022-12-05T21:21:29.235Z,106.73
2022-12-05T21:24:01.927Z,131.53
2022-12-05T21:26:33.905Z,184.67
2022-12-05T21:29:02.346Z,266.07
2022-12-05T21:31:34.985Z,262.37
2022-12-05T21:34:06.033Z,263.30
2022-12-05T21:36:36.495Z,243.50
2022-12-05T21:39:04.519Z,215.10
2022-12-05T21:41:32.390Z,164.80
2022-12-05T21:44:01.241Z,147.90
2022-12-05T21:46:28.752Z,134.87
2022-12-05T21:48:56.427Z,127.30
2022-12-05T21:51:24.522Z,146.53
2022-12-05T21:53:52.599Z,201.93
2022-12-05T21:56:25.866Z,185.97
2022-12-05T21:58:53.743Z,176.00
2022-12-05T22:01:24.525Z,194.37
2022-12-05T22:03:53.933Z,230.57
2022-12-05T22:06:21.698Z,207.13
2022-12-05T22:08:51.054Z,181.07
2022-12-05T22:11:21.444Z,169.53
2022-12-05T22:13:50.133Z,172.20
2022-12-05T22:16:19.056Z,180.60
2022-12-05T22:18:46.911Z,192.13
2022-12-05T22:21:19.420Z,180.10
2022-12-05T22:23:48.092Z,179.73
2022-12-05T22:26:21.483Z,210.73
2022-12-05T22:28:51.476Z,187.03
2022-12-05T22:31:19.829Z,197.93
2022-12-05T22:33:47.904Z,162.33
2022-12-05T22:36:18.362Z,148.97
2022-12-05T22:38:47.960Z,147.93
2022-12-05T22:41:18.229Z,152.80
2022-12-05T22:43:47.589Z,143.70
2022-12-05T22:46:20.765Z,133.23
2022-12-05T22:48:50.170Z,121.93
2022-12-05T22:51:19.794Z,126.33
2022-12-05T22:53:47.094Z,127.07
2022-12-05T22:56:17.368Z,136.13
2022-12-05T22:58:45.825Z,127.80
2022-12-05T23:01:20.153Z,119.30
2022-12-05T23:03:49.924Z,101.77
2022-12-05T23:06:18.220Z,105.63
2022-12-05T23:08:48.215Z,115.30
2022-12-05T23:11:16.798Z,129.57
2022-12-05T23:13:44.583Z,185.67
2022-12-05T23:16:21.412Z,200.07
2022-12-05T23:18:50.877Z,165.67
2022-12-05T23:21:30.146Z,150.43
2022-12-05T23:24:00.477Z,145.40
2022-12-05T23:26:34.463Z,164.47
2022-12-05T23:29:01.866Z,106.50
2022-12-05T23:31:29.317Z,153.87
2022-12-05T23:34:01.450Z,112.07
2022-12-05T23:36:33.185Z,90.57
2022-12-05T23:39:01.283Z,193.77
2022-12-05T23:41:28.798Z,210.67
2022-12-05T23:43:57.095Z,124.40
2022-12-05T23:46:28.626Z,120.37
2022-12-05T23:48:56.445Z,118.73
2022-12-05T23:51:26.914Z,93.27
2022-12-05T23:54:00.060Z,58.13
2022-12-05T23:56:30.169Z,53.60
2022-12-05T23:58:58.196Z,66.17
